LFBI/PIS METAR and TAF weather

Enter ICAO airport designator
Station Type Date Time Source
LFBI METAR 2023/02/05 14:00 UTC NOAA

LFBI 051400Z AUTO 01012KT 9999 FEW027 SCT033 BKN052 11/05 Q1039 TEMPO BKN014


Station Type Date Time Source
LFBI Decoded METAR 2023/02/05 14:00 UTC NOAA

Poitiers, France (LFBI) 46-35N 000-19E 120M
Feb 05, 2023 - 09:00 AM EST / 2023.02.05 1400 UTC
Wind: from the N (010 degrees) at 14 MPH (12 KT):0
Visibility: greater than 7 mile(s):0
Sky conditions: mostly cloudy
Temperature: 51 F (11 C)
Dew Point: 41 F (5 C)
Relative Humidity: 66%
Pressure (altimeter): 30.68 in. Hg (1039 hPa)
ob: LFBI 051400Z AUTO 01012KT 9999 FEW027 SCT033 BKN052 11/05 Q1039 TEMPO BKN014
cycle: 14

Station Type Date Time Source
LFBI TAF 2023/02/05 12:42 UTC NOAA

TAF LFBI 051100Z 0512/0612 04010KT 9999 SCT020 SCT048 PROB40
TEMPO 0514/0518 BKN014
BECMG 0605/0607 BKN012
BECMG 0610/0612 SCT016

Example: see airport list